sensor_id;sensor_type;location;lat;lon;timestamp;pressure;altitude;pressure_sealevel;temperature;humidity
51297;BME280;37380;45.186;9.792;2023-05-18T00:02:07;101090.47;;;13.92;100.00
51297;BME280;37380;45.186;9.792;2023-05-18T00:04:35;101156.97;;;14.55;100.00
51297;BME280;37380;45.186;9.792;2023-05-18T00:07:03;101129.50;;;14.45;100.00
51297;BME280;37380;45.186;9.792;2023-05-18T00:09:33;101076.84;;;14.42;100.00
51297;BME280;37380;45.186;9.792;2023-05-18T00:12:02;101149.53;;;14.73;100.00
51297;BME280;37380;45.186;9.792;2023-05-18T00:14:30;101091.63;;;14.37;100.00
51297;BME280;37380;45.186;9.792;2023-05-18T00:16:57;101081.66;;;14.23;100.00
51297;BME280;37380;45.186;9.792;2023-05-18T00:19:28;101133.06;;;14.47;100.00
51297;BME280;37380;45.186;9.792;2023-05-18T00:21:56;101156.72;;;14.80;100.00
51297;BME280;37380;45.186;9.792;2023-05-18T00:24:23;101163.06;;;14.88;100.00
51297;BME280;37380;45.186;9.792;2023-05-18T00:26:50;101122.34;;;14.39;100.00
51297;BME280;37380;45.186;9.792;2023-05-18T00:29:17;100985.25;;;13.53;100.00
51297;BME280;37380;45.186;9.792;2023-05-18T00:31:45;101090.47;;;13.92;100.00
51297;BME280;37380;45.186;9.792;2023-05-18T00:34:13;101151.28;;;14.39;100.00
51297;BME280;37380;45.186;9.792;2023-05-18T00:36:41;101053.72;;;13.94;100.00
51297;BME280;37380;45.186;9.792;2023-05-18T00:39:08;101099.28;;;14.27;100.00
51297;BME280;37380;45.186;9.792;2023-05-18T00:41:36;101104.56;;;14.29;100.00
51297;BME280;37380;45.186;9.792;2023-05-18T00:44:03;101153.72;;;14.65;100.00
51297;BME280;37380;45.186;9.792;2023-05-18T00:46:31;101151.66;;;14.53;100.00
51297;BME280;37380;45.186;9.792;2023-05-18T00:48:58;101156.91;;;14.52;100.00
51297;BME280;37380;45.186;9.792;2023-05-18T00:51:48;101095.53;;;14.19;100.00
51297;BME280;37380;45.186;9.792;2023-05-18T00:54:49;101140.19;;;14.51;100.00
51297;BME280;37380;45.186;9.792;2023-05-18T00:57:44;101163.22;;;14.60;100.00
51297;BME280;37380;45.186;9.792;2023-05-18T01:00:14;101086.84;;;14.20;100.00
51297;BME280;37380;45.186;9.792;2023-05-18T01:02:41;101026.28;;;13.82;100.00
51297;BME280;37380;45.186;9.792;2023-05-18T01:05:11;101176.56;;;15.02;100.00
51297;BME280;37380;45.186;9.792;2023-05-18T01:07:40;101186.59;;;14.82;100.00
51297;BME280;37380;45.186;9.792;2023-05-18T01:10:13;101127.00;;;14.49;100.00
51297;BME280;37380;45.186;9.792;2023-05-18T01:12:49;101127.59;;;14.38;100.00
51297;BME280;37380;45.186;9.792;2023-05-18T01:15:22;101179.28;;;14.70;100.00
51297;BME280;37380;45.186;9.792;2023-05-18T01:17:58;101170.66;;;14.43;100.00
51297;BME280;37380;45.186;9.792;2023-05-18T01:26:43;101105.41;;;13.95;100.00
51297;BME280;37380;45.186;9.792;2023-05-18T01:29:12;101184.25;;;14.28;100.00
51297;BME280;37380;45.186;9.792;2023-05-18T01:31:41;101079.75;;;13.53;100.00
51297;BME280;37380;45.186;9.792;2023-05-18T01:34:14;101168.22;;;13.86;100.00
51297;BME280;37380;45.186;9.792;2023-05-18T01:37:08;101123.69;;;13.60;100.00
51297;BME280;37380;45.186;9.792;2023-05-18T01:39:36;101113.19;;;13.60;100.00
51297;BME280;37380;45.186;9.792;2023-05-18T01:42:07;101112.66;;;13.72;100.00
51297;BME280;37380;45.186;9.792;2023-05-18T01:44:42;101077.16;;;13.54;100.00
51297;BME280;37380;45.186;9.792;2023-05-18T01:47:13;101139.00;;;13.75;100.00
51297;BME280;37380;45.186;9.792;2023-05-18T01:55:44;101095.25;;;13.45;100.00
51297;BME280;37380;45.186;9.792;2023-05-18T01:58:13;101061.84;;;13.40;100.00
51297;BME280;37380;45.186;9.792;2023-05-18T02:00:40;101135.81;;;13.85;100.00
51297;BME280;37380;45.186;9.792;2023-05-18T02:03:07;101169.50;;;14.00;100.00
51297;BME280;37380;45.186;9.792;2023-05-18T02:05:41;101084.91;;;13.50;100.00
51297;BME280;37380;45.186;9.792;2023-05-18T02:08:42;101036.59;;;13.14;100.00
51297;BME280;37380;45.186;9.792;2023-05-18T02:11:36;101071.69;;;13.18;100.00
51297;BME280;37380;45.186;9.792;2023-05-18T02:14:03;101101.41;;;13.46;100.00
51297;BME280;37380;45.186;9.792;2023-05-18T02:16:31;101102.09;;;13.39;100.00
51297;BME280;37380;45.186;9.792;2023-05-18T02:18:58;101134.28;;;13.63;100.00
51297;BME280;37380;45.186;9.792;2023-05-18T02:21:26;101095.31;;;13.18;100.00
51297;BME280;37380;45.186;9.792;2023-05-18T02:23:53;101162.22;;;13.61;100.00
51297;BME280;37380;45.186;9.792;2023-05-18T02:26:20;101149.19;;;13.64;100.00
51297;BME280;37380;45.186;9.792;2023-05-18T02:28:51;101151.38;;;13.49;100.00
51297;BME280;37380;45.186;9.792;2023-05-18T02:31:18;101186.44;;;13.51;100.00
51297;BME280;37380;45.186;9.792;2023-05-18T02:33:45;101105.16;;;13.25;100.00
51297;BME280;37380;45.186;9.792;2023-05-18T02:36:13;101142.28;;;13.38;100.00
51297;BME280;37380;45.186;9.792;2023-05-18T02:38:42;101130.50;;;13.25;100.00
51297;BME280;37380;45.186;9.792;2023-05-18T02:41:10;101033.72;;;12.50;100.00
51297;BME280;37380;45.186;9.792;2023-05-18T02:43:38;101154.97;;;13.24;100.00
51297;BME280;37380;45.186;9.792;2023-05-18T02:46:06;101157.28;;;13.42;100.00
51297;BME280;37380;45.186;9.792;2023-05-18T02:48:33;101148.41;;;13.11;100.00
51297;BME280;37380;45.186;9.792;2023-05-18T02:51:07;101123.50;;;12.97;100.00
51297;BME280;37380;45.186;9.792;2023-05-18T02:54:02;101157.66;;;13.25;100.00
51297;BME280;37380;45.186;9.792;2023-05-18T02:56:31;101095.41;;;12.93;100.00
51297;BME280;37380;45.186;9.792;2023-05-18T02:59:07;101110.25;;;12.92;100.00
51297;BME280;37380;45.186;9.792;2023-05-18T03:01:37;101135.78;;;12.98;100.00
51297;BME280;37380;45.186;9.792;2023-05-18T03:04:06;101069.19;;;12.65;100.00
51297;BME280;37380;45.186;9.792;2023-05-18T03:06:36;101114.19;;;12.79;100.00
51297;BME280;37380;45.186;9.792;2023-05-18T03:09:04;101128.63;;;12.94;100.00
51297;BME280;37380;45.186;9.792;2023-05-18T03:11:39;101167.44;;;13.31;100.00
51297;BME280;37380;45.186;9.792;2023-05-18T03:14:07;101155.31;;;13.07;100.00
51297;BME280;37380;45.186;9.792;2023-05-18T03:16:34;101145.13;;;12.89;100.00
51297;BME280;37380;45.186;9.792;2023-05-18T03:19:09;101131.91;;;12.86;100.00
51297;BME280;37380;45.186;9.792;2023-05-18T03:21:39;101127.97;;;12.72;100.00
51297;BME280;37380;45.186;9.792;2023-05-18T03:24:06;101176.22;;;13.06;100.00
51297;BME280;37380;45.186;9.792;2023-05-18T03:26:36;101138.19;;;12.64;100.00
51297;BME280;37380;45.186;9.792;2023-05-18T03:29:05;101144.66;;;12.76;100.00
51297;BME280;37380;45.186;9.792;2023-05-18T03:31:32;101130.47;;;12.69;100.00
51297;BME280;37380;45.186;9.792;2023-05-18T03:34:01;101156.03;;;12.76;100.00
51297;BME280;37380;45.186;9.792;2023-05-18T03:36:28;101173.31;;;12.97;100.00
51297;BME280;37380;45.186;9.792;2023-05-18T03:38:55;101155.22;;;12.77;100.00
51297;BME280;37380;45.186;9.792;2023-05-18T03:41:23;101166.78;;;12.84;100.00
51297;BME280;37380;45.186;9.792;2023-05-18T03:43:52;101159.91;;;12.87;100.00
51297;BME280;37380;45.186;9.792;2023-05-18T03:46:20;101199.03;;;13.07;100.00
51297;BME280;37380;45.186;9.792;2023-05-18T03:48:48;101169.13;;;13.02;100.00
51297;BME280;37380;45.186;9.792;2023-05-18T03:51:26;101126.78;;;12.89;100.00
51297;BME280;37380;45.186;9.792;2023-05-18T03:54:27;101179.09;;;13.12;100.00
51297;BME280;37380;45.186;9.792;2023-05-18T03:57:22;101190.78;;;13.23;100.00
51297;BME280;37380;45.186;9.792;2023-05-18T03:59:49;101167.34;;;13.01;100.00
51297;BME280;37380;45.186;9.792;2023-05-18T04:02:16;101159.72;;;12.81;100.00
51297;BME280;37380;45.186;9.792;2023-05-18T04:04:44;101181.19;;;12.97;100.00
51297;BME280;37380;45.186;9.792;2023-05-18T04:07:14;101205.63;;;13.23;100.00
51297;BME280;37380;45.186;9.792;2023-05-18T04:09:47;101187.78;;;13.11;100.00
51297;BME280;37380;45.186;9.792;2023-05-18T04:12:14;101187.69;;;13.08;100.00
51297;BME280;37380;45.186;9.792;2023-05-18T04:14:42;101134.84;;;12.68;100.00
51297;BME280;37380;45.186;9.792;2023-05-18T04:17:09;101177.84;;;13.01;100.00
51297;BME280;37380;45.186;9.792;2023-05-18T04:19:36;101201.53;;;13.29;100.00
51297;BME280;37380;45.186;9.792;2023-05-18T04:22:06;101206.38;;;13.44;100.00
51297;BME280;37380;45.186;9.792;2023-05-18T04:24:33;101201.19;;;13.20;100.00
51297;BME280;37380;45.186;9.792;2023-05-18T04:27:02;101216.47;;;13.32;100.00
51297;BME280;37380;45.186;9.792;2023-05-18T04:29:30;101199.13;;;13.10;100.00
51297;BME280;37380;45.186;9.792;2023-05-18T04:31:59;101195.22;;;13.24;100.00
51297;BME280;37380;45.186;9.792;2023-05-18T04:34:27;101202.53;;;13.34;100.00
51297;BME280;37380;45.186;9.792;2023-05-18T04:36:55;101134.63;;;12.89;100.00
51297;BME280;37380;45.186;9.792;2023-05-18T04:39:25;101129.09;;;12.80;100.00
51297;BME280;37380;45.186;9.792;2023-05-18T04:41:53;101234.03;;;13.62;100.00
51297;BME280;37380;45.186;9.792;2023-05-18T04:44:27;101163.88;;;13.02;100.00
51297;BME280;37380;45.186;9.792;2023-05-18T04:46:57;101200.41;;;13.23;100.00
51297;BME280;37380;45.186;9.792;2023-05-18T04:49:25;101219.19;;;13.64;100.00
51297;BME280;37380;45.186;9.792;2023-05-18T04:52:07;101216.75;;;13.70;100.00
51297;BME280;37380;45.186;9.792;2023-05-18T04:54:49;101224.41;;;13.91;100.00
51297;BME280;37380;45.186;9.792;2023-05-18T04:57:31;101179.69;;;13.59;100.00
51297;BME280;37380;45.186;9.792;2023-05-18T04:59:59;101201.75;;;13.96;100.00
51297;BME280;37380;45.186;9.792;2023-05-18T05:02:26;101233.47;;;14.34;100.00
51297;BME280;37380;45.186;9.792;2023-05-18T05:04:55;101256.44;;;14.71;100.00
51297;BME280;37380;45.186;9.792;2023-05-18T05:07:22;101212.91;;;14.49;100.00
51297;BME280;37380;45.186;9.792;2023-05-18T05:09:49;101176.28;;;14.57;100.00
51297;BME280;37380;45.186;9.792;2023-05-18T05:12:17;101262.69;;;15.82;100.00
51297;BME280;37380;45.186;9.792;2023-05-18T05:14:57;101220.41;;;15.76;100.00
51297;BME280;37380;45.186;9.792;2023-05-18T05:17:45;101243.25;;;15.03;100.00
51297;BME280;37380;45.186;9.792;2023-05-18T05:20:26;101186.44;;;14.43;100.00
51297;BME280;37380;45.186;9.792;2023-05-18T05:22:53;101264.72;;;15.20;100.00
51297;BME280;37380;45.186;9.792;2023-05-18T05:25:23;101240.16;;;15.19;100.00
51297;BME280;37380;45.186;9.792;2023-05-18T05:27:50;101195.28;;;14.46;100.00
51297;BME280;37380;45.186;9.792;2023-05-18T05:30:19;101231.72;;;15.34;100.00
51297;BME280;37380;45.186;9.792;2023-05-18T05:32:47;101227.56;;;16.24;100.00
51297;BME280;37380;45.186;9.792;2023-05-18T05:35:27;101174.19;;;17.43;100.00
51297;BME280;37380;45.186;9.792;2023-05-18T05:38:09;101212.06;;;20.43;100.00
51297;BME280;37380;45.186;9.792;2023-05-18T05:40:36;101215.66;;;20.54;95.84
51297;BME280;37380;45.186;9.792;2023-05-18T05:43:04;101225.09;;;19.83;99.24
51297;BME280;37380;45.186;9.792;2023-05-18T05:45:35;101250.53;;;18.58;100.00
51297;BME280;37380;45.186;9.792;2023-05-18T05:48:06;101203.03;;;17.30;100.00
51297;BME280;37380;45.186;9.792;2023-05-18T05:50:46;101234.81;;;17.34;100.00
51297;BME280;37380;45.186;9.792;2023-05-18T05:53:27;101239.94;;;17.24;100.00
51297;BME280;37380;45.186;9.792;2023-05-18T05:56:08;101150.41;;;16.34;100.00
51297;BME280;37380;45.186;9.792;2023-05-18T05:58:40;101256.75;;;17.30;100.00
51297;BME280;37380;45.186;9.792;2023-05-18T06:01:08;101201.97;;;17.17;100.00
51297;BME280;37380;45.186;9.792;2023-05-18T06:03:35;101228.66;;;17.35;100.00
51297;BME280;37380;45.186;9.792;2023-05-18T06:06:05;101218.56;;;17.66;100.00
51297;BME280;37380;45.186;9.792;2023-05-18T06:08:32;101229.69;;;18.07;100.00
51297;BME280;37380;45.186;9.792;2023-05-18T06:10:59;101235.97;;;18.98;100.00
51297;BME280;37380;45.186;9.792;2023-05-18T06:13:26;101231.22;;;19.75;95.32
51297;BME280;37380;45.186;9.792;2023-05-18T06:15:55;101240.28;;;20.17;95.36
51297;BME280;37380;45.186;9.792;2023-05-18T06:18:23;101262.63;;;21.08;94.99
51297;BME280;37380;45.186;9.792;2023-05-18T06:21:00;101221.84;;;21.52;82.74
51297;BME280;37380;45.186;9.792;2023-05-18T06:23:28;101254.63;;;21.23;83.25
51297;BME280;37380;45.186;9.792;2023-05-18T06:26:01;101246.50;;;22.12;74.92
51297;BME280;37380;45.186;9.792;2023-05-18T06:28:31;101210.91;;;22.37;72.45
51297;BME280;37380;45.186;9.792;2023-05-18T06:31:19;101211.22;;;21.35;75.76
51297;BME280;37380;45.186;9.792;2023-05-18T06:33:54;101223.44;;;22.05;72.39
51297;BME280;37380;45.186;9.792;2023-05-18T06:36:21;101212.13;;;20.97;77.86
51297;BME280;37380;45.186;9.792;2023-05-18T06:38:49;101241.59;;;19.38;83.98
51297;BME280;37380;45.186;9.792;2023-05-18T06:41:16;101261.72;;;21.06;80.06
51297;BME280;37380;45.186;9.792;2023-05-18T06:43:43;101257.28;;;21.74;75.47
51297;BME280;37380;45.186;9.792;2023-05-18T06:46:21;101217.19;;;19.94;83.31
51297;BME280;37380;45.186;9.792;2023-05-18T06:49:10;101193.97;;;19.53;86.62
51297;BME280;37380;45.186;9.792;2023-05-18T06:51:37;101156.34;;;21.12;83.97
51297;BME280;37380;45.186;9.792;2023-05-18T06:54:17;101255.56;;;21.42;80.39
51297;BME280;37380;45.186;9.792;2023-05-18T06:56:44;101252.75;;;20.45;83.26
51297;BME280;37380;45.186;9.792;2023-05-18T06:59:12;101236.00;;;20.58;78.55
51297;BME280;37380;45.186;9.792;2023-05-18T07:01:39;101267.91;;;21.03;77.34
51297;BME280;37380;45.186;9.792;2023-05-18T07:04:07;101260.09;;;19.32;85.19
51297;BME280;37380;45.186;9.792;2023-05-18T07:06:35;101209.31;;;17.99;90.64
51297;BME280;37380;45.186;9.792;2023-05-18T07:09:02;101206.66;;;17.35;96.68
51297;BME280;37380;45.186;9.792;2023-05-18T07:11:30;101194.03;;;17.15;98.30
51297;BME280;37380;45.186;9.792;2023-05-18T07:14:10;101270.78;;;17.82;100.00
51297;BME280;37380;45.186;9.792;2023-05-18T07:16:50;101287.75;;;18.73;96.00
51297;BME280;37380;45.186;9.792;2023-05-18T07:19:30;101225.16;;;18.75;91.03
51297;BME280;37380;45.186;9.792;2023-05-18T07:21:57;101207.94;;;18.31;93.50
51297;BME280;37380;45.186;9.792;2023-05-18T07:24:25;101239.25;;;17.96;97.24
51297;BME280;37380;45.186;9.792;2023-05-18T07:26:53;101230.44;;;17.97;97.97
51297;BME280;37380;45.186;9.792;2023-05-18T07:29:21;101233.91;;;17.93;97.72
51297;BME280;37380;45.186;9.792;2023-05-18T07:31:49;101267.06;;;17.71;100.00
51297;BME280;37380;45.186;9.792;2023-05-18T07:34:29;101296.19;;;19.17;91.88
51297;BME280;37380;45.186;9.792;2023-05-18T07:36:56;101242.38;;;18.38;95.92
51297;BME280;37380;45.186;9.792;2023-05-18T07:39:24;101279.28;;;19.03;93.69
51297;BME280;37380;45.186;9.792;2023-05-18T07:41:54;101228.19;;;18.29;97.70
51297;BME280;37380;45.186;9.792;2023-05-18T07:44:22;101265.81;;;18.82;91.56
51297;BME280;37380;45.186;9.792;2023-05-18T07:46:50;101276.66;;;18.28;95.82
51297;BME280;37380;45.186;9.792;2023-05-18T07:49:18;101272.75;;;18.70;92.27
51297;BME280;37380;45.186;9.792;2023-05-18T07:51:58;101301.59;;;18.49;97.97
51297;BME280;37380;45.186;9.792;2023-05-18T07:54:39;101211.66;;;17.77;98.15
51297;BME280;37380;45.186;9.792;2023-05-18T07:57:19;101275.16;;;18.47;98.79
51297;BME280;37380;45.186;9.792;2023-05-18T07:59:46;101238.72;;;18.26;95.67
51297;BME280;37380;45.186;9.792;2023-05-18T08:02:13;101206.28;;;18.43;91.35
51297;BME280;37380;45.186;9.792;2023-05-18T08:04:42;101254.88;;;19.44;91.63
51297;BME280;37380;45.186;9.792;2023-05-18T08:07:09;101132.81;;;19.15;86.93
51297;BME280;37380;45.186;9.792;2023-05-18T08:09:36;101285.38;;;20.17;86.70
51297;BME280;37380;45.186;9.792;2023-05-18T08:12:04;101200.06;;;19.38;89.45
51297;BME280;37380;45.186;9.792;2023-05-18T08:14:31;101192.03;;;19.28;86.72
51297;BME280;37380;45.186;9.792;2023-05-18T08:16:58;101262.28;;;19.97;89.60
51297;BME280;37380;45.186;9.792;2023-05-18T08:19:33;101239.44;;;20.28;86.35
51297;BME280;37380;45.186;9.792;2023-05-18T08:22:14;101231.44;;;20.21;81.76
51297;BME280;37380;45.186;9.792;2023-05-18T08:24:55;101231.28;;;19.85;81.62
51297;BME280;37380;45.186;9.792;2023-05-18T08:27:23;101260.84;;;19.15;86.18
51297;BME280;37380;45.186;9.792;2023-05-18T08:29:50;101262.25;;;18.76;91.44
51297;BME280;37380;45.186;9.792;2023-05-18T08:32:17;101215.47;;;18.74;95.03
51297;BME280;37380;45.186;9.792;2023-05-18T08:34:44;101220.00;;;20.34;86.73
51297;BME280;37380;45.186;9.792;2023-05-18T08:37:12;101265.97;;;20.31;82.69
51297;BME280;37380;45.186;9.792;2023-05-18T08:39:39;101244.88;;;20.73;78.94
51297;BME280;37380;45.186;9.792;2023-05-18T08:42:14;101228.78;;;22.02;67.38
51297;BME280;37380;45.186;9.792;2023-05-18T08:44:49;101256.19;;;22.37;69.06
51297;BME280;37380;45.186;9.792;2023-05-18T08:47:19;101270.59;;;21.17;71.15
51297;BME280;37380;45.186;9.792;2023-05-18T08:49:51;101292.69;;;20.85;76.06
51297;BME280;37380;45.186;9.792;2023-05-18T08:52:35;101237.72;;;20.43;73.47
51297;BME280;37380;45.186;9.792;2023-05-18T08:55:06;101224.41;;;20.38;73.66
51297;BME280;37380;45.186;9.792;2023-05-18T08:57:38;101295.16;;;20.36;76.04
51297;BME280;37380;45.186;9.792;2023-05-18T09:00:09;101270.53;;;20.71;74.70
51297;BME280;37380;45.186;9.792;2023-05-18T09:02:38;101238.72;;;21.32;70.71
51297;BME280;37380;45.186;9.792;2023-05-18T09:05:07;101195.88;;;19.71;75.35
51297;BME280;37380;45.186;9.792;2023-05-18T09:07:36;101252.84;;;20.82;73.47
51297;BME280;37380;45.186;9.792;2023-05-18T09:10:08;101274.78;;;20.17;73.77
51297;BME280;37380;45.186;9.792;2023-05-18T09:12:37;101296.19;;;22.18;65.03
51297;BME280;37380;45.186;9.792;2023-05-18T09:15:16;101286.38;;;22.30;65.77
51297;BME280;37380;45.186;9.792;2023-05-18T09:17:43;101199.75;;;21.00;61.96
51297;BME280;37380;45.186;9.792;2023-05-18T09:20:10;101255.50;;;20.67;64.65
51297;BME280;37380;45.186;9.792;2023-05-18T09:22:38;101258.16;;;21.71;65.70
51297;BME280;37380;45.186;9.792;2023-05-18T09:25:09;101302.38;;;22.13;64.98
51297;BME280;37380;45.186;9.792;2023-05-18T09:27:37;101271.50;;;21.03;64.15
51297;BME280;37380;45.186;9.792;2023-05-18T09:30:09;101305.16;;;21.28;66.58
51297;BME280;37380;45.186;9.792;2023-05-18T09:32:37;101288.28;;;21.88;63.19
51297;BME280;37380;45.186;9.792;2023-05-18T09:35:08;101298.59;;;22.71;60.08
51297;BME280;37380;45.186;9.792;2023-05-18T09:37:40;101292.91;;;23.26;59.38
51297;BME280;37380;45.186;9.792;2023-05-18T09:40:07;101258.72;;;22.59;62.68
51297;BME280;37380;45.186;9.792;2023-05-18T09:42:39;101281.81;;;22.54;66.47
51297;BME280;37380;45.186;9.792;2023-05-18T09:45:18;101292.69;;;20.70;73.20
51297;BME280;37380;45.186;9.792;2023-05-18T09:47:45;101260.81;;;21.80;72.11
51297;BME280;37380;45.186;9.792;2023-05-18T09:50:23;101285.56;;;20.64;72.86
51297;BME280;37380;45.186;9.792;2023-05-18T09:52:58;101301.59;;;21.13;73.74
51297;BME280;37380;45.186;9.792;2023-05-18T09:55:48;101295.06;;;20.08;78.21
51297;BME280;37380;45.186;9.792;2023-05-18T09:58:16;101228.78;;;20.16;79.21
51297;BME280;37380;45.186;9.792;2023-05-18T10:00:48;101159.19;;;18.99;81.23
51297;BME280;37380;45.186;9.792;2023-05-18T10:03:24;101280.09;;;20.20;78.02
51297;BME280;37380;45.186;9.792;2023-05-18T10:05:51;101264.84;;;19.79;78.30
51297;BME280;37380;45.186;9.792;2023-05-18T10:08:27;101304.66;;;19.82;83.30
51297;BME280;37380;45.186;9.792;2023-05-18T10:10:55;101290.69;;;20.13;79.02
51297;BME280;37380;45.186;9.792;2023-05-18T10:13:25;101236.91;;;20.73;78.35
51297;BME280;37380;45.186;9.792;2023-05-18T10:15:55;101240.47;;;20.72;77.05
51297;BME280;37380;45.186;9.792;2023-05-18T10:18:30;101282.97;;;21.06;74.24
51297;BME280;37380;45.186;9.792;2023-05-18T10:21:00;101275.91;;;21.14;73.73
51297;BME280;37380;45.186;9.792;2023-05-18T10:23:32;101268.72;;;22.08;73.73
51297;BME280;37380;45.186;9.792;2023-05-18T10:25:59;101205.94;;;21.02;71.97
51297;BME280;37380;45.186;9.792;2023-05-18T10:28:35;101245.81;;;21.42;77.57
51297;BME280;37380;45.186;9.792;2023-05-18T10:31:05;101265.13;;;22.21;66.94
51297;BME280;37380;45.186;9.792;2023-05-18T10:33:35;101287.28;;;22.29;75.22
51297;BME280;37380;45.186;9.792;2023-05-18T10:36:04;101274.66;;;22.62;65.39
51297;BME280;37380;45.186;9.792;2023-05-18T10:38:32;101235.88;;;22.20;66.97
51297;BME280;37380;45.186;9.792;2023-05-18T10:41:04;101277.66;;;21.75;71.26
51297;BME280;37380;45.186;9.792;2023-05-18T10:43:33;101224.38;;;22.05;63.88
51297;BME280;37380;45.186;9.792;2023-05-18T10:46:04;101263.16;;;22.57;63.39
51297;BME280;37380;45.186;9.792;2023-05-18T10:48:38;101271.22;;;22.46;63.16
51297;BME280;37380;45.186;9.792;2023-05-18T10:51:08;101258.06;;;21.99;64.00
51297;BME280;37380;45.186;9.792;2023-05-18T10:53:51;101254.63;;;21.66;67.28
51297;BME280;37380;45.186;9.792;2023-05-18T10:56:32;101248.34;;;21.99;63.67
51297;BME280;37380;45.186;9.792;2023-05-18T10:59:03;101281.25;;;21.47;70.06
51297;BME280;37380;45.186;9.792;2023-05-18T11:01:31;101231.59;;;21.31;63.85
51297;BME280;37380;45.186;9.792;2023-05-18T11:04:03;101275.84;;;21.97;63.65
51297;BME280;37380;45.186;9.792;2023-05-18T11:06:30;101241.06;;;22.44;61.69
51297;BME280;37380;45.186;9.792;2023-05-18T11:09:02;101257.53;;;23.06;60.00
51297;BME280;37380;45.186;9.792;2023-05-18T11:11:49;101211.53;;;22.76;58.35
51297;BME280;37380;45.186;9.792;2023-05-18T11:14:33;101262.47;;;23.49;56.74
51297;BME280;37380;45.186;9.792;2023-05-18T11:17:21;101252.78;;;23.40;57.63
51297;BME280;37380;45.186;9.792;2023-05-18T11:22:47;101275.06;;;23.35;54.30
51297;BME280;37380;45.186;9.792;2023-05-18T11:27:52;101222.72;;;20.52;73.59
51297;BME280;37380;45.186;9.792;2023-05-18T11:39:02;101258.41;;;23.08;58.68
51297;BME280;37380;45.186;9.792;2023-05-18T11:41:34;101266.72;;;22.56;57.63
51297;BME280;37380;45.186;9.792;2023-05-18T11:52:17;101226.25;;;21.74;62.97
51297;BME280;37380;45.186;9.792;2023-05-18T11:54:59;101248.84;;;22.76;59.79
51297;BME280;37380;45.186;9.792;2023-05-18T11:57:41;101236.53;;;22.58;57.49
51297;BME280;37380;45.186;9.792;2023-05-18T12:00:10;101230.69;;;23.27;56.91
51297;BME280;37380;45.186;9.792;2023-05-18T12:02:41;101230.41;;;22.46;58.37
51297;BME280;37380;45.186;9.792;2023-05-18T12:05:09;101251.22;;;23.16;58.66
51297;BME280;37380;45.186;9.792;2023-05-18T12:07:37;101235.50;;;23.83;59.34
51297;BME280;37380;45.186;9.792;2023-05-18T12:10:12;101233.16;;;22.26;58.50
51297;BME280;37380;45.186;9.792;2023-05-18T12:12:46;101210.31;;;21.62;63.50
51297;BME280;37380;45.186;9.792;2023-05-18T12:15:14;101168.72;;;21.39;59.45
51297;BME280;37380;45.186;9.792;2023-05-18T12:17:47;101229.75;;;21.85;59.68
51297;BME280;37380;45.186;9.792;2023-05-18T12:20:21;101214.81;;;21.09;65.16
51297;BME280;37380;45.186;9.792;2023-05-18T12:22:52;101250.91;;;22.13;61.85
51297;BME280;37380;45.186;9.792;2023-05-18T12:25:21;101226.41;;;23.10;59.56
51297;BME280;37380;45.186;9.792;2023-05-18T12:27:50;101214.69;;;21.86;56.65
51297;BME280;37380;45.186;9.792;2023-05-18T12:30:23;101226.84;;;22.44;57.46
51297;BME280;37380;45.186;9.792;2023-05-18T12:32:52;101208.31;;;22.27;59.09
51297;BME280;37380;45.186;9.792;2023-05-18T12:35:27;101175.84;;;22.94;54.04
51297;BME280;37380;45.186;9.792;2023-05-18T12:37:56;101185.78;;;22.74;53.22
51297;BME280;37380;45.186;9.792;2023-05-18T12:40:27;101149.97;;;21.82;59.34
51297;BME280;37380;45.186;9.792;2023-05-18T12:43:00;101170.97;;;22.41;52.28
51297;BME280;37380;45.186;9.792;2023-05-18T12:45:30;101187.16;;;21.95;58.37
51297;BME280;37380;45.186;9.792;2023-05-18T12:50:48;101191.88;;;22.96;54.25
51297;BME280;37380;45.186;9.792;2023-05-18T12:53:42;101181.69;;;22.31;52.04
51297;BME280;37380;45.186;9.792;2023-05-18T12:56:22;101126.03;;;21.78;53.11
51297;BME280;37380;45.186;9.792;2023-05-18T12:58:58;101157.00;;;21.92;52.62
51297;BME280;37380;45.186;9.792;2023-05-18T13:01:26;101193.97;;;22.48;52.83
51297;BME280;37380;45.186;9.792;2023-05-18T13:03:55;101193.28;;;22.07;49.36
51297;BME280;37380;45.186;9.792;2023-05-18T13:06:24;101196.19;;;21.17;58.28
51297;BME280;37380;45.186;9.792;2023-05-18T13:08:54;101203.97;;;22.01;58.12
51297;BME280;37380;45.186;9.792;2023-05-18T13:11:25;101194.41;;;21.53;55.34
51297;BME280;37380;45.186;9.792;2023-05-18T13:13:59;101187.34;;;21.39;59.99
51297;BME280;37380;45.186;9.792;2023-05-18T13:16:27;101203.25;;;21.32;58.83
51297;BME280;37380;45.186;9.792;2023-05-18T13:18:57;101195.25;;;21.70;58.55
51297;BME280;37380;45.186;9.792;2023-05-18T13:21:32;101146.53;;;21.34;56.30
51297;BME280;37380;45.186;9.792;2023-05-18T13:24:13;101181.09;;;21.36;60.53
51297;BME280;37380;45.186;9.792;2023-05-18T13:26:40;101219.13;;;21.79;57.76
51297;BME280;37380;45.186;9.792;2023-05-18T13:29:07;101157.16;;;21.46;57.30
51297;BME280;37380;45.186;9.792;2023-05-18T13:31:37;101180.25;;;21.00;56.95
51297;BME280;37380;45.186;9.792;2023-05-18T13:34:10;101138.59;;;20.22;55.22
51297;BME280;37380;45.186;9.792;2023-05-18T13:36:37;101159.91;;;20.90;56.50
51297;BME280;37380;45.186;9.792;2023-05-18T13:39:04;101222.75;;;21.61;53.37
51297;BME280;37380;45.186;9.792;2023-05-18T13:41:33;101173.88;;;21.84;49.36
51297;BME280;37380;45.186;9.792;2023-05-18T13:44:02;101203.13;;;21.95;49.90
51297;BME280;37380;45.186;9.792;2023-05-18T13:46:30;101193.53;;;21.15;49.20